createdAt,value
2023-03-06T00:02:25.295Z,1.09
2023-03-06T00:04:53.231Z,1.06
2023-03-06T00:07:19.747Z,1.04
2023-03-06T00:09:46.253Z,1.02
2023-03-06T00:12:12.854Z,1.00
2023-03-06T00:14:39.384Z,0.96
2023-03-06T00:17:05.906Z,0.91
2023-03-06T00:19:32.485Z,0.88
2023-03-06T00:21:59.005Z,0.86
2023-03-06T00:24:25.464Z,0.83
2023-03-06T00:26:52.013Z,0.80
2023-03-06T00:29:18.540Z,0.72
2023-03-06T00:31:47.895Z,0.69
2023-03-06T00:34:15.013Z,0.64
2023-03-06T00:36:41.893Z,0.65
2023-03-06T00:39:08.420Z,0.62
2023-03-06T00:41:34.936Z,0.60
2023-03-06T00:44:01.442Z,0.59
2023-03-06T00:46:28.015Z,0.58
2023-03-06T00:48:54.544Z,0.57
2023-03-06T00:51:21.735Z,0.60
2023-03-06T00:53:48.677Z,0.62
2023-03-06T00:56:15.183Z,0.60
2023-03-06T00:58:41.675Z,0.58
2023-03-06T01:01:08.401Z,0.57
2023-03-06T01:03:34.885Z,0.60
2023-03-06T01:06:01.486Z,0.61
2023-03-06T01:08:27.980Z,0.65
2023-03-06T01:10:54.550Z,0.66
2023-03-06T01:13:21.153Z,0.69
2023-03-06T01:15:47.795Z,0.68
2023-03-06T01:18:15.292Z,0.70
2023-03-06T01:20:42.140Z,0.69
2023-03-06T01:23:08.636Z,0.69
2023-03-06T01:25:35.200Z,0.68
2023-03-06T01:28:01.805Z,0.66
2023-03-06T01:30:28.357Z,0.64
2023-03-06T01:32:54.838Z,0.64
2023-03-06T01:35:21.335Z,0.63
2023-03-06T01:37:47.775Z,0.57
2023-03-06T01:40:14.599Z,0.54
2023-03-06T01:42:41.947Z,0.51
2023-03-06T01:45:11.412Z,0.50
2023-03-06T01:47:37.893Z,0.50
2023-03-06T01:50:07.104Z,0.45
2023-03-06T01:52:40.084Z,0.42
2023-03-06T01:55:14.403Z,0.37
2023-03-06T01:57:44.924Z,0.31
2023-03-06T02:00:19.292Z,0.29
2023-03-06T02:02:53.193Z,0.27
2023-03-06T02:05:19.800Z,0.24
2023-03-06T02:07:48.249Z,0.23
2023-03-06T02:10:15.981Z,0.25
2023-03-06T02:12:46.310Z,0.25
2023-03-06T02:15:14.767Z,0.23
2023-03-06T02:17:43.977Z,0.21
2023-03-06T02:20:20.855Z,0.19
2023-03-06T02:23:02.372Z,0.17
2023-03-06T02:25:37.228Z,0.18
2023-03-06T02:28:06.067Z,0.17
2023-03-06T02:30:33.406Z,0.14
2023-03-06T02:33:00.308Z,0.16
2023-03-06T02:35:32.790Z,0.18
2023-03-06T02:38:04.731Z,0.21
2023-03-06T02:40:31.283Z,0.25
2023-03-06T02:42:58.671Z,0.25
2023-03-06T02:45:40.648Z,0.28
2023-03-06T02:48:07.612Z,0.35
2023-03-06T02:50:34.137Z,0.41
2023-03-06T02:53:00.703Z,0.46
2023-03-06T02:55:27.518Z,0.52
2023-03-06T02:57:54.036Z,0.59
2023-03-06T03:00:20.795Z,0.64
2023-03-06T03:02:47.330Z,0.68
2023-03-06T03:05:14.296Z,0.69
2023-03-06T03:07:41.007Z,0.73
2023-03-06T03:10:08.427Z,0.76
2023-03-06T03:12:35.008Z,0.77
2023-03-06T03:15:01.555Z,0.81
2023-03-06T03:17:28.635Z,0.83
2023-03-06T03:19:55.238Z,0.84
2023-03-06T03:22:21.724Z,0.86
2023-03-06T03:24:48.300Z,0.87
2023-03-06T03:27:15.343Z,0.89
2023-03-06T03:29:42.718Z,0.89
2023-03-06T03:32:09.921Z,0.92
2023-03-06T03:34:36.412Z,0.94
2023-03-06T03:37:02.965Z,0.95
2023-03-06T03:39:29.475Z,0.98
2023-03-06T03:41:55.998Z,1.01
2023-03-06T03:44:22.651Z,1.02
2023-03-06T03:46:49.319Z,1.04
2023-03-06T03:49:16.024Z,1.06
2023-03-06T03:51:42.551Z,1.08
2023-03-06T03:54:09.012Z,1.10
2023-03-06T03:56:35.554Z,1.14
2023-03-06T03:59:02.412Z,1.16
2023-03-06T04:01:29.085Z,1.19
2023-03-06T04:03:55.652Z,1.21
2023-03-06T04:06:22.242Z,1.24
2023-03-06T04:08:48.853Z,1.25
2023-03-06T04:11:15.887Z,1.27
2023-03-06T04:13:42.388Z,1.28
2023-03-06T04:16:08.972Z,1.29
2023-03-06T04:18:35.638Z,1.30
2023-03-06T04:21:02.121Z,1.31
2023-03-06T04:23:28.847Z,1.32
2023-03-06T04:25:55.415Z,1.32
2023-03-06T04:28:21.977Z,1.32
2023-03-06T04:30:48.488Z,1.33
2023-03-06T04:33:15.309Z,1.36
2023-03-06T04:35:41.825Z,1.37
2023-03-06T04:38:08.584Z,1.40
2023-03-06T04:40:36.592Z,1.40
2023-03-06T04:43:04.197Z,1.41
2023-03-06T04:45:32.346Z,1.44
2023-03-06T04:47:59.345Z,1.43
2023-03-06T04:50:28.171Z,1.44
2023-03-06T04:52:54.728Z,1.47
2023-03-06T04:55:21.391Z,1.49
2023-03-06T04:57:48.484Z,1.51
2023-03-06T05:00:21.103Z,1.51
2023-03-06T05:02:48.812Z,1.53
2023-03-06T05:05:16.486Z,1.56
2023-03-06T05:07:43.342Z,1.59
2023-03-06T05:10:15.700Z,1.62
2023-03-06T05:12:42.858Z,1.61
2023-03-06T05:15:10.754Z,1.63
2023-03-06T05:17:37.872Z,1.67
2023-03-06T05:20:07.433Z,1.70
2023-03-06T05:22:34.937Z,1.72
2023-03-06T05:25:01.835Z,1.74
2023-03-06T05:27:29.039Z,1.75
2023-03-06T05:29:55.718Z,1.77
2023-03-06T05:32:22.913Z,1.77
2023-03-06T05:34:50.180Z,1.78
2023-03-06T05:37:16.892Z,1.77
2023-03-06T05:39:43.700Z,1.77
2023-03-06T05:42:10.449Z,1.78
2023-03-06T05:44:38.025Z,1.75
2023-03-06T05:47:04.809Z,1.73
2023-03-06T05:49:33.695Z,1.69
2023-03-06T05:52:01.299Z,1.67
2023-03-06T05:54:27.795Z,1.63
2023-03-06T05:56:54.336Z,1.60
2023-03-06T05:59:20.806Z,1.56
2023-03-06T06:01:47.269Z,1.51
2023-03-06T06:04:13.773Z,1.48
2023-03-06T06:06:40.529Z,1.49
2023-03-06T06:09:07.053Z,1.46
2023-03-06T06:11:33.550Z,1.46
2023-03-06T06:14:00.088Z,1.49
2023-03-06T06:16:26.615Z,1.48
2023-03-06T06:18:53.089Z,1.50
2023-03-06T06:21:19.583Z,1.52
2023-03-06T06:23:46.221Z,1.57
2023-03-06T06:26:12.705Z,1.61
2023-03-06T06:28:39.201Z,1.67
2023-03-06T06:31:13.194Z,1.75
2023-03-06T06:33:40.961Z,1.80
2023-03-06T06:36:18.910Z,1.83
2023-03-06T06:38:45.488Z,1.88
2023-03-06T06:41:36.000Z,1.90
2023-03-06T06:43:59.377Z,1.94
2023-03-06T06:47:14.338Z,1.97
2023-03-06T06:49:13.826Z,2.05
2023-03-06T06:51:41.271Z,2.08
2023-03-06T06:54:08.717Z,2.13
2023-03-06T06:56:35.442Z,2.20
2023-03-06T06:59:15.557Z,2.25
2023-03-06T07:01:43.544Z,2.29
2023-03-06T07:04:14.844Z,2.33
2023-03-06T07:06:42.557Z,2.37
2023-03-06T07:09:09.382Z,2.38
2023-03-06T07:11:37.872Z,2.39
2023-03-06T07:14:04.466Z,2.40
2023-03-06T07:16:30.964Z,2.41
2023-03-06T07:18:57.587Z,2.41
2023-03-06T07:21:24.380Z,2.49
2023-03-06T07:23:50.887Z,2.54
2023-03-06T07:26:17.385Z,2.57
2023-03-06T07:28:52.266Z,2.58
2023-03-06T07:31:25.733Z,2.58
2023-03-06T07:33:53.789Z,2.62
2023-03-06T07:36:22.500Z,2.65
2023-03-06T07:38:49.213Z,2.74
2023-03-06T07:41:16.568Z,2.82
2023-03-06T07:43:44.865Z,2.89
2023-03-06T07:46:12.776Z,2.92
2023-03-06T07:48:40.427Z,2.95
2023-03-06T07:51:27.355Z,3.03
2023-03-06T07:53:54.231Z,3.12
2023-03-06T07:56:20.933Z,3.19
2023-03-06T07:58:48.137Z,3.20
2023-03-06T08:01:17.689Z,3.26
2023-03-06T08:03:44.243Z,3.40
2023-03-06T08:06:19.428Z,3.49
2023-03-06T08:08:47.269Z,3.49
2023-03-06T08:11:15.940Z,3.52
2023-03-06T08:13:43.038Z,3.51
2023-03-06T08:16:10.484Z,3.52
2023-03-06T08:18:39.548Z,3.50
2023-03-06T08:21:07.706Z,3.51
2023-03-06T08:23:35.229Z,3.56
2023-03-06T08:26:07.717Z,3.72
2023-03-06T08:28:34.612Z,3.73
2023-03-06T08:31:12.958Z,3.78
2023-03-06T08:33:40.826Z,3.78
2023-03-06T08:36:07.675Z,3.78
2023-03-06T08:38:34.211Z,3.76
2023-03-06T08:41:00.872Z,3.72
2023-03-06T08:43:27.520Z,3.76
2023-03-06T08:45:55.431Z,3.83
2023-03-06T08:48:21.923Z,3.91
2023-03-06T08:50:49.067Z,4.07
2023-03-06T08:53:15.600Z,4.13
2023-03-06T08:55:42.251Z,4.20
2023-03-06T08:58:08.973Z,4.27
2023-03-06T09:00:36.681Z,4.43
2023-03-06T09:03:03.859Z,4.47
2023-03-06T09:05:30.502Z,4.54
2023-03-06T09:07:57.049Z,4.61
2023-03-06T09:10:25.170Z,4.58
2023-03-06T09:12:54.729Z,4.78
2023-03-06T09:15:22.144Z,4.76
2023-03-06T09:17:48.688Z,4.58
2023-03-06T09:20:15.834Z,4.57
2023-03-06T09:22:42.538Z,4.54
2023-03-06T09:25:11.095Z,4.49
2023-03-06T09:27:37.636Z,4.51
2023-03-06T09:30:04.849Z,4.53
2023-03-06T09:32:31.373Z,4.70
2023-03-06T09:34:57.866Z,4.80
2023-03-06T09:37:24.622Z,5.10
2023-03-06T09:39:51.245Z,5.17
2023-03-06T09:42:21.390Z,5.33
2023-03-06T09:44:55.981Z,5.46
2023-03-06T09:47:49.378Z,5.52
2023-03-06T09:50:26.393Z,5.60
2023-03-06T09:53:15.417Z,5.33
2023-03-06T09:55:50.221Z,5.28
2023-03-06T09:58:22.012Z,5.51
2023-03-06T10:01:12.663Z,5.76
2023-03-06T10:03:48.546Z,5.89
2023-03-06T10:06:25.089Z,5.78
2023-03-06T10:09:14.514Z,5.72
2023-03-06T10:11:56.565Z,5.86
2023-03-06T10:14:41.625Z,5.88
2023-03-06T10:17:17.731Z,5.83
2023-03-06T10:19:47.596Z,5.96
2023-03-06T10:22:20.383Z,5.86
2023-03-06T10:25:20.439Z,5.95
2023-03-06T10:27:57.501Z,6.19
2023-03-06T10:30:38.853Z,6.15
2023-03-06T10:33:11.315Z,6.04
2023-03-06T10:35:53.255Z,6.09
2023-03-06T10:38:31.887Z,5.89
2023-03-06T10:41:29.785Z,5.94
2023-03-06T10:44:05.470Z,5.89
2023-03-06T10:46:37.538Z,5.89
2023-03-06T10:49:23.540Z,5.96
2023-03-06T10:52:06.770Z,6.10
2023-03-06T10:54:39.764Z,6.20
2023-03-06T10:57:30.902Z,6.39
2023-03-06T11:00:20.659Z,6.43
2023-03-06T11:02:47.233Z,6.73
2023-03-06T11:05:20.978Z,6.79
2023-03-06T11:07:57.048Z,7.15
2023-03-06T11:10:24.430Z,7.15
2023-03-06T11:13:10.416Z,7.30
2023-03-06T11:15:36.976Z,7.52
2023-03-06T11:18:04.990Z,7.68
2023-03-06T11:20:51.615Z,7.52
2023-03-06T11:23:22.263Z,7.44
2023-03-06T11:25:54.890Z,7.49
2023-03-06T11:28:30.484Z,7.52
2023-03-06T11:31:09.756Z,7.57
2023-03-06T11:33:51.632Z,7.81
2023-03-06T11:36:36.193Z,7.96
2023-03-06T11:39:29.797Z,8.12
2023-03-06T11:42:10.929Z,7.62
2023-03-06T11:45:13.580Z,7.37
2023-03-06T11:47:49.237Z,7.76
2023-03-06T11:50:31.022Z,7.94
2023-03-06T11:53:00.033Z,7.57
2023-03-06T11:55:29.497Z,7.52
2023-03-06T11:58:23.820Z,7.70
2023-03-06T12:00:54.741Z,7.99
2023-03-06T12:03:49.028Z,8.08
2023-03-06T12:06:15.477Z,7.75
2023-03-06T12:08:51.408Z,7.81
2023-03-06T12:11:30.698Z,8.04
2023-03-06T12:14:36.111Z,8.31
2023-03-06T12:17:13.094Z,8.49
2023-03-06T12:19:52.086Z,8.54
2023-03-06T12:22:41.311Z,8.40
2023-03-06T12:25:27.868Z,8.34
2023-03-06T12:28:19.231Z,8.41
2023-03-06T12:31:09.556Z,8.66
2023-03-06T12:33:59.261Z,8.86
2023-03-06T12:36:42.580Z,9.11
2023-03-06T12:39:26.048Z,9.21
2023-03-06T12:42:02.504Z,9.29
2023-03-06T12:45:04.238Z,9.27
2023-03-06T12:47:36.407Z,9.12
2023-03-06T12:50:13.770Z,8.93
2023-03-06T12:52:41.656Z,8.80
2023-03-06T12:55:16.579Z,8.82
2023-03-06T12:57:43.323Z,8.85
2023-03-06T13:00:35.179Z,9.07
2023-03-06T13:03:30.419Z,9.19
2023-03-06T13:06:20.847Z,9.18
2023-03-06T13:09:09.336Z,9.35
2023-03-06T13:12:24.987Z,9.46
2023-03-06T13:14:54.896Z,9.37
2023-03-06T13:17:28.507Z,9.41
2023-03-06T13:20:13.427Z,9.29
2023-03-06T13:22:42.278Z,9.30
2023-03-06T13:25:21.147Z,9.27
2023-03-06T13:28:03.273Z,9.28
2023-03-06T13:30:38.869Z,9.26
2023-03-06T13:33:26.763Z,9.24
2023-03-06T13:35:59.058Z,9.14
2023-03-06T13:38:33.536Z,9.03
2023-03-06T13:41:25.031Z,9.16
2023-03-06T13:43:54.028Z,8.99
2023-03-06T13:46:25.801Z,8.96
2023-03-06T13:49:07.637Z,8.93
2023-03-06T13:51:40.221Z,9.01
2023-03-06T13:54:44.131Z,8.91
2023-03-06T13:57:29.905Z,8.70
2023-03-06T14:00:15.278Z,8.62
2023-03-06T14:02:55.109Z,8.54
2023-03-06T14:05:22.867Z,8.49
2023-03-06T14:08:15.840Z,8.40
2023-03-06T14:10:45.112Z,8.40
2023-03-06T14:13:22.198Z,8.37
2023-03-06T14:15:51.715Z,8.35
2023-03-06T14:18:25.596Z,8.35
2023-03-06T14:20:59.390Z,8.31
2023-03-06T14:23:29.073Z,8.26
2023-03-06T14:26:07.744Z,8.07
2023-03-06T14:28:35.389Z,7.88
2023-03-06T14:31:04.432Z,7.80
2023-03-06T14:33:36.875Z,7.57
2023-03-06T14:36:08.219Z,7.42
2023-03-06T14:38:42.261Z,7.36
2023-03-06T14:41:11.796Z,7.40
2023-03-06T14:43:39.512Z,7.33
2023-03-06T14:46:06.919Z,7.28
2023-03-06T14:48:45.375Z,7.18
2023-03-06T14:51:33.272Z,7.12
2023-03-06T14:54:02.168Z,7.05
2023-03-06T14:56:30.385Z,6.89
2023-03-06T14:59:01.221Z,6.84
2023-03-06T15:01:31.398Z,6.80
2023-03-06T15:04:00.359Z,6.70
2023-03-06T15:06:33.425Z,6.56
2023-03-06T15:09:21.616Z,6.64
2023-03-06T15:12:01.448Z,6.76
2023-03-06T15:14:37.320Z,6.78
2023-03-06T15:17:16.005Z,6.86
2023-03-06T15:19:42.949Z,6.87
2023-03-06T15:22:30.288Z,6.85
2023-03-06T15:25:20.286Z,6.83
2023-03-06T15:27:57.526Z,6.82
2023-03-06T15:30:26.841Z,6.81
2023-03-06T15:33:29.003Z,6.79
2023-03-06T15:36:01.777Z,6.68
2023-03-06T15:38:46.027Z,6.46
2023-03-06T15:41:28.596Z,6.38
2023-03-06T15:43:55.220Z,6.31
2023-03-06T15:46:21.728Z,6.29
2023-03-06T15:48:55.943Z,6.20
2023-03-06T15:51:23.270Z,6.14
2023-03-06T15:53:50.281Z,6.06
2023-03-06T15:56:21.412Z,6.02
2023-03-06T15:58:48.132Z,5.98
2023-03-06T16:01:17.482Z,5.89
2023-03-06T16:03:45.091Z,5.81
2023-03-06T16:06:26.068Z,5.73
2023-03-06T16:08:53.140Z,5.67
2023-03-06T16:11:35.427Z,5.59
2023-03-06T16:14:18.881Z,5.46
2023-03-06T16:16:45.815Z,5.37
2023-03-06T16:19:25.919Z,5.29
2023-03-06T16:21:53.582Z,5.23
2023-03-06T16:24:20.195Z,5.19
2023-03-06T16:26:50.973Z,5.15
2023-03-06T16:29:19.980Z,5.09
2023-03-06T16:31:46.642Z,4.97
2023-03-06T16:34:14.045Z,4.91
2023-03-06T16:36:41.013Z,4.85
2023-03-06T16:39:16.895Z,4.79
2023-03-06T16:41:44.921Z,4.70
2023-03-06T16:44:12.330Z,4.66
2023-03-06T16:46:41.590Z,4.64
2023-03-06T16:49:12.619Z,4.62
2023-03-06T16:51:40.459Z,4.58
2023-03-06T16:54:06.947Z,4.54
2023-03-06T16:56:33.412Z,4.53
2023-03-06T16:58:59.937Z,4.50
2023-03-06T17:01:26.568Z,4.48
2023-03-06T17:03:53.088Z,4.45
2023-03-06T17:06:21.797Z,4.38
2023-03-06T17:08:49.468Z,4.35
2023-03-06T17:11:17.045Z,4.31
2023-03-06T17:13:44.301Z,4.26
2023-03-06T17:16:18.798Z,4.22
2023-03-06T17:18:46.307Z,4.17
2023-03-06T17:21:15.678Z,4.14
2023-03-06T17:23:42.784Z,4.12
2023-03-06T17:26:20.405Z,4.08
2023-03-06T17:28:47.620Z,4.04
2023-03-06T17:31:19.952Z,4.01
2023-03-06T17:33:46.743Z,3.99
2023-03-06T17:36:16.800Z,3.96
2023-03-06T17:38:43.745Z,3.94
2023-03-06T17:41:10.972Z,3.92
2023-03-06T17:43:38.636Z,3.89
2023-03-06T17:46:10.918Z,3.88
2023-03-06T17:48:37.663Z,3.87
2023-03-06T17:51:04.979Z,3.87
2023-03-06T17:53:31.821Z,3.86
2023-03-06T17:55:58.543Z,3.83
2023-03-06T17:58:26.023Z,3.82
2023-03-06T18:00:52.998Z,3.83
2023-03-06T18:03:19.433Z,3.79
2023-03-06T18:05:45.979Z,3.79
2023-03-06T18:08:12.472Z,3.77
2023-03-06T18:10:43.439Z,3.76
2023-03-06T18:13:10.879Z,3.75
2023-03-06T18:15:41.371Z,3.72
2023-03-06T18:18:08.900Z,3.69
2023-03-06T18:20:41.166Z,3.70
2023-03-06T18:23:07.815Z,3.68
2023-03-06T18:25:34.298Z,3.67
2023-03-06T18:28:00.904Z,3.65
2023-03-06T18:30:27.655Z,3.62
2023-03-06T18:32:54.569Z,3.56
2023-03-06T18:35:21.687Z,3.55
2023-03-06T18:37:48.430Z,3.52
2023-03-06T18:40:15.264Z,3.51
2023-03-06T18:42:42.163Z,3.47
2023-03-06T18:45:09.719Z,3.44
2023-03-06T18:47:36.366Z,3.44
2023-03-06T18:50:03.205Z,3.42
2023-03-06T18:52:29.798Z,3.40
2023-03-06T18:54:56.367Z,3.38
2023-03-06T18:57:22.955Z,3.36
2023-03-06T18:59:49.534Z,3.36
2023-03-06T19:02:16.004Z,3.31
2023-03-06T19:04:42.467Z,3.28
2023-03-06T19:07:09.022Z,3.26
2023-03-06T19:09:35.620Z,3.23
2023-03-06T19:12:03.485Z,3.23
2023-03-06T19:14:30.169Z,3.20
2023-03-06T19:16:56.838Z,3.17
2023-03-06T19:19:26.276Z,3.15
2023-03-06T19:21:53.728Z,3.14
2023-03-06T19:24:20.191Z,3.14
2023-03-06T19:26:46.823Z,3.15
2023-03-06T19:29:13.422Z,3.12
2023-03-06T19:31:40.014Z,3.09
2023-03-06T19:34:06.582Z,3.07
2023-03-06T19:36:34.276Z,3.07
2023-03-06T19:39:03.914Z,3.06
2023-03-06T19:41:30.814Z,3.05
2023-03-06T19:44:02.198Z,3.03
2023-03-06T19:46:29.024Z,3.01
2023-03-06T19:49:00.765Z,2.99
2023-03-06T19:51:28.373Z,2.99
2023-03-06T19:53:57.446Z,3.00
2023-03-06T19:56:27.610Z,2.99
2023-03-06T19:58:54.926Z,2.99
2023-03-06T20:01:24.778Z,3.00
2023-03-06T20:04:00.420Z,3.00
2023-03-06T20:06:36.762Z,3.00
2023-03-06T20:09:08.356Z,3.02
2023-03-06T20:11:34.836Z,3.03
2023-03-06T20:14:03.361Z,3.05
2023-03-06T20:16:30.698Z,3.06
2023-03-06T20:18:58.966Z,3.06
2023-03-06T20:21:26.724Z,3.07
2023-03-06T20:23:54.860Z,3.08
2023-03-06T20:26:21.437Z,3.11
2023-03-06T20:28:48.221Z,3.12
2023-03-06T20:31:17.820Z,3.15
2023-03-06T20:33:50.215Z,3.18
2023-03-06T20:36:19.909Z,3.19
2023-03-06T20:38:47.038Z,3.21
2023-03-06T20:41:26.007Z,3.25
2023-03-06T20:43:53.099Z,3.25
2023-03-06T20:46:21.433Z,3.25
2023-03-06T20:48:50.611Z,3.27
2023-03-06T20:51:18.594Z,3.32
2023-03-06T20:53:47.451Z,3.34
2023-03-06T20:56:15.786Z,3.36
2023-03-06T20:58:42.760Z,3.37
2023-03-06T21:01:09.289Z,3.40
2023-03-06T21:03:35.760Z,3.39
2023-03-06T21:06:02.382Z,3.45
2023-03-06T21:08:28.905Z,3.47
2023-03-06T21:10:55.365Z,3.50
2023-03-06T21:13:21.834Z,3.52
2023-03-06T21:15:49.119Z,3.56
2023-03-06T21:18:15.702Z,3.58
2023-03-06T21:20:42.352Z,3.58
2023-03-06T21:23:09.190Z,3.61
2023-03-06T21:25:36.247Z,3.63
2023-03-06T21:28:03.139Z,3.64
2023-03-06T21:30:29.819Z,3.67
2023-03-06T21:32:56.391Z,3.70
2023-03-06T21:35:22.936Z,3.73
2023-03-06T21:37:49.541Z,3.75
2023-03-06T21:40:16.191Z,3.76
2023-03-06T21:42:42.752Z,3.80
2023-03-06T21:45:09.655Z,3.81
2023-03-06T21:47:40.904Z,3.85
2023-03-06T21:50:09.626Z,3.88
2023-03-06T21:52:36.234Z,3.92
2023-03-06T21:55:02.909Z,3.94
2023-03-06T21:57:29.518Z,3.95
2023-03-06T21:59:56.121Z,3.96
2023-03-06T22:02:22.847Z,3.99
2023-03-06T22:04:52.047Z,4.00
2023-03-06T22:07:19.479Z,4.03
2023-03-06T22:09:46.247Z,4.07
2023-03-06T22:12:12.762Z,4.10
2023-03-06T22:14:39.337Z,4.09
2023-03-06T22:17:05.851Z,4.07
2023-03-06T22:19:32.607Z,4.04
2023-03-06T22:21:59.216Z,4.02
2023-03-06T22:24:25.762Z,4.02
2023-03-06T22:26:52.413Z,4.00
2023-03-06T22:29:18.905Z,4.01
2023-03-06T22:31:45.518Z,3.99
2023-03-06T22:34:12.086Z,3.99
2023-03-06T22:36:38.717Z,3.99
2023-03-06T22:39:05.286Z,3.97
2023-03-06T22:41:32.024Z,3.91
2023-03-06T22:44:00.683Z,3.88
2023-03-06T22:46:27.724Z,3.85
2023-03-06T22:48:59.290Z,3.83
2023-03-06T22:51:27.449Z,3.83
2023-03-06T22:53:54.036Z,3.82
2023-03-06T22:56:21.752Z,3.80
2023-03-06T22:58:48.669Z,3.77
2023-03-06T23:01:27.219Z,3.79
2023-03-06T23:03:56.418Z,3.80
2023-03-06T23:06:24.308Z,3.81
2023-03-06T23:08:57.394Z,3.82
2023-03-06T23:11:25.467Z,3.81
2023-03-06T23:13:53.247Z,3.77
2023-03-06T23:16:20.128Z,3.72
2023-03-06T23:18:46.871Z,3.72
2023-03-06T23:21:16.125Z,3.70
2023-03-06T23:23:44.266Z,3.68
2023-03-06T23:26:13.473Z,3.72
2023-03-06T23:28:40.989Z,3.72
2023-03-06T23:31:20.660Z,3.73
2023-03-06T23:33:48.189Z,3.76
2023-03-06T23:36:16.910Z,3.79
2023-03-06T23:38:44.008Z,3.82
2023-03-06T23:41:13.499Z,3.87
2023-03-06T23:43:40.311Z,3.91
2023-03-06T23:46:07.721Z,3.95
2023-03-06T23:48:35.839Z,3.99
2023-03-06T23:51:12.892Z,4.06
2023-03-06T23:53:39.445Z,4.08
2023-03-06T23:56:06.877Z,4.11
2023-03-06T23:58:33.601Z,4.12
